sensor_id;sensor_type;location;lat;lon;timestamp;temperature;humidity
14101;DHT22;7127;49.372;8.166;2023-03-16T00:00:50;7.10;51.90
14101;DHT22;7127;49.372;8.166;2023-03-16T00:03:17;7.10;52.00
14101;DHT22;7127;49.372;8.166;2023-03-16T00:05:44;7.20;52.20
14101;DHT22;7127;49.372;8.166;2023-03-16T00:08:14;7.00;52.10
14101;DHT22;7127;49.372;8.166;2023-03-16T00:10:41;7.00;51.90
14101;DHT22;7127;49.372;8.166;2023-03-16T00:13:12;6.90;51.90
14101;DHT22;7127;49.372;8.166;2023-03-16T00:15:39;7.00;52.10
14101;DHT22;7127;49.372;8.166;2023-03-16T00:18:06;6.90;52.10
14101;DHT22;7127;49.372;8.166;2023-03-16T00:20:33;6.90;52.20
14101;DHT22;7127;49.372;8.166;2023-03-16T00:23:00;6.90;52.30
14101;DHT22;7127;49.372;8.166;2023-03-16T00:25:28;6.90;52.40
14101;DHT22;7127;49.372;8.166;2023-03-16T00:27:57;6.80;52.40
14101;DHT22;7127;49.372;8.166;2023-03-16T00:30:28;6.80;52.50
14101;DHT22;7127;49.372;8.166;2023-03-16T00:32:55;6.80;52.60
14101;DHT22;7127;49.372;8.166;2023-03-16T00:35:21;7.10;52.70
14101;DHT22;7127;49.372;8.166;2023-03-16T00:37:48;6.80;52.50
14101;DHT22;7127;49.372;8.166;2023-03-16T00:40:15;7.00;52.60
14101;DHT22;7127;49.372;8.166;2023-03-16T00:42:44;6.90;52.60
14101;DHT22;7127;49.372;8.166;2023-03-16T00:45:11;6.70;52.40
14101;DHT22;7127;49.372;8.166;2023-03-16T00:47:37;6.70;52.40
14101;DHT22;7127;49.372;8.166;2023-03-16T00:50:05;6.90;52.80
14101;DHT22;7127;49.372;8.166;2023-03-16T00:52:32;6.70;52.60
14101;DHT22;7127;49.372;8.166;2023-03-16T00:55:00;6.60;52.60
14101;DHT22;7127;49.372;8.166;2023-03-16T00:57:29;6.90;52.90
14101;DHT22;7127;49.372;8.166;2023-03-16T00:59:57;6.70;52.90
14101;DHT22;7127;49.372;8.166;2023-03-16T01:02:24;7.10;53.30
14101;DHT22;7127;49.372;8.166;2023-03-16T01:04:52;7.00;53.20
14101;DHT22;7127;49.372;8.166;2023-03-16T01:07:19;6.60;53.20
14101;DHT22;7127;49.372;8.166;2023-03-16T01:09:47;6.60;53.10
14101;DHT22;7127;49.372;8.166;2023-03-16T01:12:16;6.60;53.00
14101;DHT22;7127;49.372;8.166;2023-03-16T01:14:44;6.60;53.10
14101;DHT22;7127;49.372;8.166;2023-03-16T01:17:13;6.60;53.20
14101;DHT22;7127;49.372;8.166;2023-03-16T01:19:41;6.60;53.10
14101;DHT22;7127;49.372;8.166;2023-03-16T01:22:10;6.60;53.10
14101;DHT22;7127;49.372;8.166;2023-03-16T01:24:38;6.60;53.10
14101;DHT22;7127;49.372;8.166;2023-03-16T01:27:05;6.60;53.20
14101;DHT22;7127;49.372;8.166;2023-03-16T01:29:32;6.60;53.20
14101;DHT22;7127;49.372;8.166;2023-03-16T01:31:59;6.60;53.20
14101;DHT22;7127;49.372;8.166;2023-03-16T01:34:28;6.60;53.20
14101;DHT22;7127;49.372;8.166;2023-03-16T01:36:56;6.60;53.20
14101;DHT22;7127;49.372;8.166;2023-03-16T01:39:23;6.70;53.20
14101;DHT22;7127;49.372;8.166;2023-03-16T01:41:50;7.10;53.60
14101;DHT22;7127;49.372;8.166;2023-03-16T01:44:19;6.60;53.20
14101;DHT22;7127;49.372;8.166;2023-03-16T01:46:49;6.70;53.40
14101;DHT22;7127;49.372;8.166;2023-03-16T01:49:17;6.60;53.30
14101;DHT22;7127;49.372;8.166;2023-03-16T01:51:49;6.50;53.20
14101;DHT22;7127;49.372;8.166;2023-03-16T01:54:22;7.00;53.60
14101;DHT22;7127;49.372;8.166;2023-03-16T01:56:56;6.70;53.40
14101;DHT22;7127;49.372;8.166;2023-03-16T01:59:27;6.50;53.20
14101;DHT22;7127;49.372;8.166;2023-03-16T02:01:55;6.50;53.00
14101;DHT22;7127;49.372;8.166;2023-03-16T02:04:30;6.50;53.00
14101;DHT22;7127;49.372;8.166;2023-03-16T02:07:00;6.50;53.20
14101;DHT22;7127;49.372;8.166;2023-03-16T02:09:27;6.40;53.10
14101;DHT22;7127;49.372;8.166;2023-03-16T02:11:55;6.40;53.20
14101;DHT22;7127;49.372;8.166;2023-03-16T02:14:22;6.40;53.20
14101;DHT22;7127;49.372;8.166;2023-03-16T02:16:49;6.60;53.40
14101;DHT22;7127;49.372;8.166;2023-03-16T02:19:29;6.30;53.30
14101;DHT22;7127;49.372;8.166;2023-03-16T02:22:03;6.70;53.70
14101;DHT22;7127;49.372;8.166;2023-03-16T02:24:31;6.40;53.40
14101;DHT22;7127;49.372;8.166;2023-03-16T02:27:01;6.60;53.50
14101;DHT22;7127;49.372;8.166;2023-03-16T02:29:54;6.40;53.30
14101;DHT22;7127;49.372;8.166;2023-03-16T02:32:23;6.40;53.60
14101;DHT22;7127;49.372;8.166;2023-03-16T02:34:50;7.20;54.10
14101;DHT22;7127;49.372;8.166;2023-03-16T02:37:17;6.30;53.40
14101;DHT22;7127;49.372;8.166;2023-03-16T02:39:44;6.40;53.60
14101;DHT22;7127;49.372;8.166;2023-03-16T02:42:13;6.40;53.70
14101;DHT22;7127;49.372;8.166;2023-03-16T02:44:43;6.40;53.70
14101;DHT22;7127;49.372;8.166;2023-03-16T02:47:15;6.30;53.70
14101;DHT22;7127;49.372;8.166;2023-03-16T02:49:45;6.30;53.70
14101;DHT22;7127;49.372;8.166;2023-03-16T02:52:12;6.30;53.60
14101;DHT22;7127;49.372;8.166;2023-03-16T02:54:39;6.30;53.70
14101;DHT22;7127;49.372;8.166;2023-03-16T02:57:06;6.40;53.80
14101;DHT22;7127;49.372;8.166;2023-03-16T02:59:33;6.30;53.80
14101;DHT22;7127;49.372;8.166;2023-03-16T03:02:01;6.40;53.80
14101;DHT22;7127;49.372;8.166;2023-03-16T03:04:28;6.40;53.80
14101;DHT22;7127;49.372;8.166;2023-03-16T03:06:54;6.40;53.80
14101;DHT22;7127;49.372;8.166;2023-03-16T03:09:28;6.40;54.40
14101;DHT22;7127;49.372;8.166;2023-03-16T03:11:56;6.40;53.80
14101;DHT22;7127;49.372;8.166;2023-03-16T03:14:23;6.40;53.80
14101;DHT22;7127;49.372;8.166;2023-03-16T03:16:53;6.40;53.80
14101;DHT22;7127;49.372;8.166;2023-03-16T03:19:21;6.40;53.80
14101;DHT22;7127;49.372;8.166;2023-03-16T03:21:49;6.40;53.70
14101;DHT22;7127;49.372;8.166;2023-03-16T03:24:16;6.40;53.60
14101;DHT22;7127;49.372;8.166;2023-03-16T03:26:43;6.40;53.60
14101;DHT22;7127;49.372;8.166;2023-03-16T03:29:10;6.80;54.00
14101;DHT22;7127;49.372;8.166;2023-03-16T03:31:38;6.40;53.70
14101;DHT22;7127;49.372;8.166;2023-03-16T03:34:05;6.40;53.80
14101;DHT22;7127;49.372;8.166;2023-03-16T03:36:33;6.40;53.80
14101;DHT22;7127;49.372;8.166;2023-03-16T03:39:01;6.30;53.80
14101;DHT22;7127;49.372;8.166;2023-03-16T03:41:29;6.30;53.70
14101;DHT22;7127;49.372;8.166;2023-03-16T03:43:57;6.30;53.80
14101;DHT22;7127;49.372;8.166;2023-03-16T03:46:24;6.30;53.80
14101;DHT22;7127;49.372;8.166;2023-03-16T03:48:51;6.30;53.80
14101;DHT22;7127;49.372;8.166;2023-03-16T03:51:18;6.30;53.80
14101;DHT22;7127;49.372;8.166;2023-03-16T03:53:46;6.50;54.00
14101;DHT22;7127;49.372;8.166;2023-03-16T03:56:12;6.30;54.00
14101;DHT22;7127;49.372;8.166;2023-03-16T03:58:39;6.30;54.00
14101;DHT22;7127;49.372;8.166;2023-03-16T04:01:06;6.20;53.90
14101;DHT22;7127;49.372;8.166;2023-03-16T04:03:33;6.60;54.10
14101;DHT22;7127;49.372;8.166;2023-03-16T04:06:00;6.30;53.90
14101;DHT22;7127;49.372;8.166;2023-03-16T04:08:26;6.30;53.80
14101;DHT22;7127;49.372;8.166;2023-03-16T04:10:55;6.40;54.00
14101;DHT22;7127;49.372;8.166;2023-03-16T04:13:21;6.20;53.90
14101;DHT22;7127;49.372;8.166;2023-03-16T04:15:48;6.30;54.00
14101;DHT22;7127;49.372;8.166;2023-03-16T04:18:18;6.20;53.90
14101;DHT22;7127;49.372;8.166;2023-03-16T04:20:45;6.60;54.20
14101;DHT22;7127;49.372;8.166;2023-03-16T04:23:12;6.20;54.50
14101;DHT22;7127;49.372;8.166;2023-03-16T04:25:41;6.20;54.00
14101;DHT22;7127;49.372;8.166;2023-03-16T04:28:11;6.30;54.10
14101;DHT22;7127;49.372;8.166;2023-03-16T04:30:38;6.20;54.20
14101;DHT22;7127;49.372;8.166;2023-03-16T04:33:07;6.30;54.20
14101;DHT22;7127;49.372;8.166;2023-03-16T04:35:34;6.40;54.30
14101;DHT22;7127;49.372;8.166;2023-03-16T04:38:01;6.20;54.10
14101;DHT22;7127;49.372;8.166;2023-03-16T04:40:27;6.40;54.30
14101;DHT22;7127;49.372;8.166;2023-03-16T04:42:54;6.80;54.60
14101;DHT22;7127;49.372;8.166;2023-03-16T04:45:23;6.10;54.20
14101;DHT22;7127;49.372;8.166;2023-03-16T04:47:50;6.10;54.20
14101;DHT22;7127;49.372;8.166;2023-03-16T04:50:17;6.10;54.50
14101;DHT22;7127;49.372;8.166;2023-03-16T04:52:43;6.10;54.40
14101;DHT22;7127;49.372;8.166;2023-03-16T04:55:10;6.10;54.30
14101;DHT22;7127;49.372;8.166;2023-03-16T04:57:37;6.10;54.30
14101;DHT22;7127;49.372;8.166;2023-03-16T05:00:05;6.10;54.30
14101;DHT22;7127;49.372;8.166;2023-03-16T05:02:37;6.10;54.40
14101;DHT22;7127;49.372;8.166;2023-03-16T05:05:05;6.20;54.30
14101;DHT22;7127;49.372;8.166;2023-03-16T05:07:31;6.10;54.30
14101;DHT22;7127;49.372;8.166;2023-03-16T05:09:58;6.20;54.30
14101;DHT22;7127;49.372;8.166;2023-03-16T05:12:25;6.10;54.40
14101;DHT22;7127;49.372;8.166;2023-03-16T05:14:52;6.10;54.40
14101;DHT22;7127;49.372;8.166;2023-03-16T05:17:19;6.10;54.40
14101;DHT22;7127;49.372;8.166;2023-03-16T05:19:48;6.10;54.50
14101;DHT22;7127;49.372;8.166;2023-03-16T05:22:14;6.30;54.50
14101;DHT22;7127;49.372;8.166;2023-03-16T05:24:41;6.10;54.40
14101;DHT22;7127;49.372;8.166;2023-03-16T05:27:08;6.10;54.30
14101;DHT22;7127;49.372;8.166;2023-03-16T05:29:35;6.00;54.30
14101;DHT22;7127;49.372;8.166;2023-03-16T05:32:02;6.00;54.20
14101;DHT22;7127;49.372;8.166;2023-03-16T05:34:30;6.10;54.30
14101;DHT22;7127;49.372;8.166;2023-03-16T05:36:59;6.00;54.30
14101;DHT22;7127;49.372;8.166;2023-03-16T05:39:26;6.00;54.20
14101;DHT22;7127;49.372;8.166;2023-03-16T05:41:55;6.00;54.30
14101;DHT22;7127;49.372;8.166;2023-03-16T05:44:22;6.00;54.10
14101;DHT22;7127;49.372;8.166;2023-03-16T05:46:49;5.90;53.70
14101;DHT22;7127;49.372;8.166;2023-03-16T05:49:16;5.90;53.80
14101;DHT22;7127;49.372;8.166;2023-03-16T05:51:43;6.10;54.20
14101;DHT22;7127;49.372;8.166;2023-03-16T05:54:11;5.90;54.20
14101;DHT22;7127;49.372;8.166;2023-03-16T05:56:38;6.00;54.30
14101;DHT22;7127;49.372;8.166;2023-03-16T05:59:05;5.90;54.40
14101;DHT22;7127;49.372;8.166;2023-03-16T06:01:32;5.90;54.40
14101;DHT22;7127;49.372;8.166;2023-03-16T06:04:00;5.90;54.40
14101;DHT22;7127;49.372;8.166;2023-03-16T06:06:27;5.90;54.40
14101;DHT22;7127;49.372;8.166;2023-03-16T06:08:54;5.90;54.40
14101;DHT22;7127;49.372;8.166;2023-03-16T06:11:22;5.90;54.30
14101;DHT22;7127;49.372;8.166;2023-03-16T06:13:49;5.90;54.40
14101;DHT22;7127;49.372;8.166;2023-03-16T06:16:16;6.00;54.40
14101;DHT22;7127;49.372;8.166;2023-03-16T06:18:43;6.00;54.40
14101;DHT22;7127;49.372;8.166;2023-03-16T06:21:10;5.90;54.40
14101;DHT22;7127;49.372;8.166;2023-03-16T06:23:37;6.10;54.60
14101;DHT22;7127;49.372;8.166;2023-03-16T06:26:04;6.00;54.70
14101;DHT22;7127;49.372;8.166;2023-03-16T06:28:32;6.00;54.60
14101;DHT22;7127;49.372;8.166;2023-03-16T06:30:59;6.00;54.70
14101;DHT22;7127;49.372;8.166;2023-03-16T06:33:26;6.00;54.80
14101;DHT22;7127;49.372;8.166;2023-03-16T06:35:53;6.00;54.80
14101;DHT22;7127;49.372;8.166;2023-03-16T06:38:20;6.10;54.80
14101;DHT22;7127;49.372;8.166;2023-03-16T06:40:50;6.10;54.90
14101;DHT22;7127;49.372;8.166;2023-03-16T06:43:18;6.10;54.90
14101;DHT22;7127;49.372;8.166;2023-03-16T06:45:46;6.20;54.90
14101;DHT22;7127;49.372;8.166;2023-03-16T06:48:13;6.20;54.90
14101;DHT22;7127;49.372;8.166;2023-03-16T06:50:39;6.20;55.00
14101;DHT22;7127;49.372;8.166;2023-03-16T06:53:07;6.60;55.30
14101;DHT22;7127;49.372;8.166;2023-03-16T06:55:33;6.30;55.00
14101;DHT22;7127;49.372;8.166;2023-03-16T06:58:00;7.00;55.40
14101;DHT22;7127;49.372;8.166;2023-03-16T07:00:27;6.30;54.90
14101;DHT22;7127;49.372;8.166;2023-03-16T07:02:57;6.30;54.90
14101;DHT22;7127;49.372;8.166;2023-03-16T07:05:23;6.40;55.00
14101;DHT22;7127;49.372;8.166;2023-03-16T07:07:50;6.30;55.10
14101;DHT22;7127;49.372;8.166;2023-03-16T07:10:19;6.40;55.10
14101;DHT22;7127;49.372;8.166;2023-03-16T07:12:46;6.40;55.10
14101;DHT22;7127;49.372;8.166;2023-03-16T07:15:14;6.40;55.10
14101;DHT22;7127;49.372;8.166;2023-03-16T07:17:41;6.40;55.10
14101;DHT22;7127;49.372;8.166;2023-03-16T07:20:11;6.50;55.10
14101;DHT22;7127;49.372;8.166;2023-03-16T07:22:38;6.50;55.20
14101;DHT22;7127;49.372;8.166;2023-03-16T07:25:07;6.60;55.20
14101;DHT22;7127;49.372;8.166;2023-03-16T07:27:35;6.60;55.10
14101;DHT22;7127;49.372;8.166;2023-03-16T07:30:03;6.70;55.20
14101;DHT22;7127;49.372;8.166;2023-03-16T07:32:31;6.70;55.10
14101;DHT22;7127;49.372;8.166;2023-03-16T07:34:58;7.20;55.40
14101;DHT22;7127;49.372;8.166;2023-03-16T07:37:26;7.30;55.40
14101;DHT22;7127;49.372;8.166;2023-03-16T07:39:53;6.90;55.10
14101;DHT22;7127;49.372;8.166;2023-03-16T07:42:20;6.90;54.90
14101;DHT22;7127;49.372;8.166;2023-03-16T07:44:48;7.00;54.90
14101;DHT22;7127;49.372;8.166;2023-03-16T07:47:16;7.20;55.00
14101;DHT22;7127;49.372;8.166;2023-03-16T07:49:43;7.30;55.10
14101;DHT22;7127;49.372;8.166;2023-03-16T07:52:10;7.80;55.50
14101;DHT22;7127;49.372;8.166;2023-03-16T07:54:41;7.30;55.10
14101;DHT22;7127;49.372;8.166;2023-03-16T07:57:08;7.20;54.90
14101;DHT22;7127;49.372;8.166;2023-03-16T07:59:35;7.30;54.90
14101;DHT22;7127;49.372;8.166;2023-03-16T08:02:03;7.40;55.00
14101;DHT22;7127;49.372;8.166;2023-03-16T08:04:30;7.40;55.00
14101;DHT22;7127;49.372;8.166;2023-03-16T08:06:57;7.40;54.80
14101;DHT22;7127;49.372;8.166;2023-03-16T08:09:25;7.60;54.90
14101;DHT22;7127;49.372;8.166;2023-03-16T08:11:53;7.50;54.80
14101;DHT22;7127;49.372;8.166;2023-03-16T08:14:20;7.60;54.80
14101;DHT22;7127;49.372;8.166;2023-03-16T08:16:48;7.70;54.80
14101;DHT22;7127;49.372;8.166;2023-03-16T08:19:15;7.70;54.80
14101;DHT22;7127;49.372;8.166;2023-03-16T08:21:44;7.90;55.00
14101;DHT22;7127;49.372;8.166;2023-03-16T08:24:11;7.90;54.80
14101;DHT22;7127;49.372;8.166;2023-03-16T08:26:38;7.80;54.70
14101;DHT22;7127;49.372;8.166;2023-03-16T08:29:06;7.80;54.70
14101;DHT22;7127;49.372;8.166;2023-03-16T08:31:33;8.40;55.10
14101;DHT22;7127;49.372;8.166;2023-03-16T08:34:00;8.60;55.30
14101;DHT22;7127;49.372;8.166;2023-03-16T08:36:27;8.30;55.10
14101;DHT22;7127;49.372;8.166;2023-03-16T08:38:55;8.10;54.90
14101;DHT22;7127;49.372;8.166;2023-03-16T08:41:22;8.10;55.00
14101;DHT22;7127;49.372;8.166;2023-03-16T08:43:49;8.30;55.20
14101;DHT22;7127;49.372;8.166;2023-03-16T08:46:18;8.30;55.20
14101;DHT22;7127;49.372;8.166;2023-03-16T08:48:45;8.30;55.20
14101;DHT22;7127;49.372;8.166;2023-03-16T08:51:13;8.50;55.10
14101;DHT22;7127;49.372;8.166;2023-03-16T08:53:39;8.50;54.80
14101;DHT22;7127;49.372;8.166;2023-03-16T08:56:08;8.50;54.60
14101;DHT22;7127;49.372;8.166;2023-03-16T08:58:37;8.60;54.70
14101;DHT22;7127;49.372;8.166;2023-03-16T09:01:06;8.70;54.80
14101;DHT22;7127;49.372;8.166;2023-03-16T09:03:35;8.70;54.90
14101;DHT22;7127;49.372;8.166;2023-03-16T09:06:05;8.70;54.80
14101;DHT22;7127;49.372;8.166;2023-03-16T09:08:32;8.80;55.00
14101;DHT22;7127;49.372;8.166;2023-03-16T09:11:00;8.90;55.00
14101;DHT22;7127;49.372;8.166;2023-03-16T09:13:28;9.10;55.10
14101;DHT22;7127;49.372;8.166;2023-03-16T09:15:56;9.00;54.90
14101;DHT22;7127;49.372;8.166;2023-03-16T09:18:24;9.10;54.90
14101;DHT22;7127;49.372;8.166;2023-03-16T09:20:56;9.20;54.90
14101;DHT22;7127;49.372;8.166;2023-03-16T09:23:23;9.30;54.80
14101;DHT22;7127;49.372;8.166;2023-03-16T09:25:50;9.30;54.70
14101;DHT22;7127;49.372;8.166;2023-03-16T09:28:17;9.50;54.80
14101;DHT22;7127;49.372;8.166;2023-03-16T09:30:44;9.50;54.70
14101;DHT22;7127;49.372;8.166;2023-03-16T09:33:11;9.60;54.60
14101;DHT22;7127;49.372;8.166;2023-03-16T09:35:38;10.00;53.90
14101;DHT22;7127;49.372;8.166;2023-03-16T09:38:07;9.70;54.50
14101;DHT22;7127;49.372;8.166;2023-03-16T09:40:36;9.80;54.60
14101;DHT22;7127;49.372;8.166;2023-03-16T09:43:15;9.90;54.40
14101;DHT22;7127;49.372;8.166;2023-03-16T09:45:48;10.10;53.60
14101;DHT22;7127;49.372;8.166;2023-03-16T09:48:17;10.00;53.50
14101;DHT22;7127;49.372;8.166;2023-03-16T09:50:46;10.10;53.50
14101;DHT22;7127;49.372;8.166;2023-03-16T09:53:21;10.20;53.50
14101;DHT22;7127;49.372;8.166;2023-03-16T09:55:52;10.10;53.30
14101;DHT22;7127;49.372;8.166;2023-03-16T09:58:20;10.30;53.30
14101;DHT22;7127;49.372;8.166;2023-03-16T10:00:54;10.30;53.20
14101;DHT22;7127;49.372;8.166;2023-03-16T10:03:31;10.40;53.30
14101;DHT22;7127;49.372;8.166;2023-03-16T10:06:02;10.40;53.20
14101;DHT22;7127;49.372;8.166;2023-03-16T10:08:36;10.50;53.30
14101;DHT22;7127;49.372;8.166;2023-03-16T10:11:15;10.50;52.80
14101;DHT22;7127;49.372;8.166;2023-03-16T10:13:46;10.90;53.00
14101;DHT22;7127;49.372;8.166;2023-03-16T10:16:17;10.70;52.80
14101;DHT22;7127;49.372;8.166;2023-03-16T10:18:47;10.70;52.80
14101;DHT22;7127;49.372;8.166;2023-03-16T10:21:16;10.80;52.90
14101;DHT22;7127;49.372;8.166;2023-03-16T10:23:46;10.80;52.90
14101;DHT22;7127;49.372;8.166;2023-03-16T10:26:16;11.00;53.10
14101;DHT22;7127;49.372;8.166;2023-03-16T10:28:44;11.00;53.10
14101;DHT22;7127;49.372;8.166;2023-03-16T10:31:11;11.10;53.10
14101;DHT22;7127;49.372;8.166;2023-03-16T10:33:39;11.10;53.10
14101;DHT22;7127;49.372;8.166;2023-03-16T10:36:14;11.20;53.00
14101;DHT22;7127;49.372;8.166;2023-03-16T10:38:43;11.30;52.70
14101;DHT22;7127;49.372;8.166;2023-03-16T10:41:25;11.40;53.20
14101;DHT22;7127;49.372;8.166;2023-03-16T10:43:54;11.50;52.60
14101;DHT22;7127;49.372;8.166;2023-03-16T10:46:22;11.60;52.50
14101;DHT22;7127;49.372;8.166;2023-03-16T10:48:51;11.70;52.10
14101;DHT22;7127;49.372;8.166;2023-03-16T10:51:23;11.70;52.40
14101;DHT22;7127;49.372;8.166;2023-03-16T10:53:51;11.80;52.10
14101;DHT22;7127;49.372;8.166;2023-03-16T10:56:22;11.90;52.40
14101;DHT22;7127;49.372;8.166;2023-03-16T10:58:50;11.90;53.00
14101;DHT22;7127;49.372;8.166;2023-03-16T11:01:18;12.00;52.50
14101;DHT22;7127;49.372;8.166;2023-03-16T11:03:48;12.10;52.40
14101;DHT22;7127;49.372;8.166;2023-03-16T11:06:19;12.20;52.00
14101;DHT22;7127;49.372;8.166;2023-03-16T11:08:47;12.30;51.80
14101;DHT22;7127;49.372;8.166;2023-03-16T11:11:16;12.40;51.90
14101;DHT22;7127;49.372;8.166;2023-03-16T11:13:47;12.40;51.90
14101;DHT22;7127;49.372;8.166;2023-03-16T11:16:22;12.50;52.00
14101;DHT22;7127;49.372;8.166;2023-03-16T11:18:51;12.60;51.80
14101;DHT22;7127;49.372;8.166;2023-03-16T11:21:24;12.70;52.10
14101;DHT22;7127;49.372;8.166;2023-03-16T11:23:55;12.80;52.00
14101;DHT22;7127;49.372;8.166;2023-03-16T11:26:28;12.90;51.90
14101;DHT22;7127;49.372;8.166;2023-03-16T11:29:00;12.90;51.70
14101;DHT22;7127;49.372;8.166;2023-03-16T11:31:40;13.00;51.30
14101;DHT22;7127;49.372;8.166;2023-03-16T11:34:15;13.00;51.00
14101;DHT22;7127;49.372;8.166;2023-03-16T11:36:47;13.10;51.00
14101;DHT22;7127;49.372;8.166;2023-03-16T11:39:26;13.00;50.30
14101;DHT22;7127;49.372;8.166;2023-03-16T11:44:50;13.00;51.20
14101;DHT22;7127;49.372;8.166;2023-03-16T11:47:53;13.00;50.60
14101;DHT22;7127;49.372;8.166;2023-03-16T11:50:27;13.00;50.30
14101;DHT22;7127;49.372;8.166;2023-03-16T11:53:00;13.10;50.60
14101;DHT22;7127;49.372;8.166;2023-03-16T11:55:37;13.20;50.80
14101;DHT22;7127;49.372;8.166;2023-03-16T11:58:20;13.00;50.60
14101;DHT22;7127;49.372;8.166;2023-03-16T12:01:00;13.20;50.80
14101;DHT22;7127;49.372;8.166;2023-03-16T12:06:35;13.10;50.80
14101;DHT22;7127;49.372;8.166;2023-03-16T12:12:24;13.20;50.70
14101;DHT22;7127;49.372;8.166;2023-03-16T12:15:07;13.20;50.80
14101;DHT22;7127;49.372;8.166;2023-03-16T12:17:43;13.20;50.70
14101;DHT22;7127;49.372;8.166;2023-03-16T12:20:15;13.30;50.70
14101;DHT22;7127;49.372;8.166;2023-03-16T12:22:45;13.30;50.30
14101;DHT22;7127;49.372;8.166;2023-03-16T12:25:17;13.40;50.30
14101;DHT22;7127;49.372;8.166;2023-03-16T12:27:47;13.30;50.40
14101;DHT22;7127;49.372;8.166;2023-03-16T12:30:26;13.40;50.60
14101;DHT22;7127;49.372;8.166;2023-03-16T12:33:05;13.40;49.60
14101;DHT22;7127;49.372;8.166;2023-03-16T12:35:41;13.50;50.10
14101;DHT22;7127;49.372;8.166;2023-03-16T12:38:24;13.50;50.10
14101;DHT22;7127;49.372;8.166;2023-03-16T12:41:00;13.50;50.30
14101;DHT22;7127;49.372;8.166;2023-03-16T12:43:47;13.70;50.30
14101;DHT22;7127;49.372;8.166;2023-03-16T12:46:22;13.70;49.90
14101;DHT22;7127;49.372;8.166;2023-03-16T12:48:57;13.70;49.90
14101;DHT22;7127;49.372;8.166;2023-03-16T12:51:34;13.70;49.90
14101;DHT22;7127;49.372;8.166;2023-03-16T12:54:02;13.80;49.60
14101;DHT22;7127;49.372;8.166;2023-03-16T12:56:31;13.80;49.80
14101;DHT22;7127;49.372;8.166;2023-03-16T12:59:01;13.80;49.30
14101;DHT22;7127;49.372;8.166;2023-03-16T13:01:36;13.90;49.20
14101;DHT22;7127;49.372;8.166;2023-03-16T13:04:09;13.80;49.20
14101;DHT22;7127;49.372;8.166;2023-03-16T13:06:42;13.80;49.30
14101;DHT22;7127;49.372;8.166;2023-03-16T13:09:10;13.80;49.40
14101;DHT22;7127;49.372;8.166;2023-03-16T13:11:43;13.80;49.50
14101;DHT22;7127;49.372;8.166;2023-03-16T13:14:27;14.00;49.60
14101;DHT22;7127;49.372;8.166;2023-03-16T13:17:02;13.90;49.60
14101;DHT22;7127;49.372;8.166;2023-03-16T13:19:32;13.90;49.20
14101;DHT22;7127;49.372;8.166;2023-03-16T13:22:05;13.90;49.40
14101;DHT22;7127;49.372;8.166;2023-03-16T13:24:49;14.00;49.50
14101;DHT22;7127;49.372;8.166;2023-03-16T13:27:39;14.00;49.30
14101;DHT22;7127;49.372;8.166;2023-03-16T13:30:33;14.10;49.10
14101;DHT22;7127;49.372;8.166;2023-03-16T13:33:16;14.20;49.30
14101;DHT22;7127;49.372;8.166;2023-03-16T13:35:51;14.20;49.10
14101;DHT22;7127;49.372;8.166;2023-03-16T13:38:22;14.30;48.90
14101;DHT22;7127;49.372;8.166;2023-03-16T13:40:54;14.40;49.10
14101;DHT22;7127;49.372;8.166;2023-03-16T13:43:25;14.40;49.10
14101;DHT22;7127;49.372;8.166;2023-03-16T13:45:53;14.50;49.10
14101;DHT22;7127;49.372;8.166;2023-03-16T13:48:21;14.60;49.10
14101;DHT22;7127;49.372;8.166;2023-03-16T13:50:52;14.60;49.00
14101;DHT22;7127;49.372;8.166;2023-03-16T13:53:23;14.70;48.90
14101;DHT22;7127;49.372;8.166;2023-03-16T13:55:51;14.80;48.60
14101;DHT22;7127;49.372;8.166;2023-03-16T13:58:23;14.90;48.50
14101;DHT22;7127;49.372;8.166;2023-03-16T14:00:54;14.90;48.20
14101;DHT22;7127;49.372;8.166;2023-03-16T14:03:22;15.00;48.00
14101;DHT22;7127;49.372;8.166;2023-03-16T14:05:51;15.00;48.00
14101;DHT22;7127;49.372;8.166;2023-03-16T14:08:19;15.00;48.00
14101;DHT22;7127;49.372;8.166;2023-03-16T14:10:48;15.10;48.10
14101;DHT22;7127;49.372;8.166;2023-03-16T14:13:30;15.20;48.10
14101;DHT22;7127;49.372;8.166;2023-03-16T14:16:10;15.20;47.80
14101;DHT22;7127;49.372;8.166;2023-03-16T14:18:40;15.30;48.20
14101;DHT22;7127;49.372;8.166;2023-03-16T14:21:12;15.30;48.20
14101;DHT22;7127;49.372;8.166;2023-03-16T14:23:42;15.40;48.20
14101;DHT22;7127;49.372;8.166;2023-03-16T14:26:11;15.40;48.20
14101;DHT22;7127;49.372;8.166;2023-03-16T14:28:40;15.50;47.90
14101;DHT22;7127;49.372;8.166;2023-03-16T14:31:09;15.60;47.70
14101;DHT22;7127;49.372;8.166;2023-03-16T14:33:38;15.70;47.50
14101;DHT22;7127;49.372;8.166;2023-03-16T14:36:12;15.60;47.40
14101;DHT22;7127;49.372;8.166;2023-03-16T14:38:40;15.70;47.20
14101;DHT22;7127;49.372;8.166;2023-03-16T14:41:20;15.70;47.20
14101;DHT22;7127;49.372;8.166;2023-03-16T14:43:48;15.80;46.80
14101;DHT22;7127;49.372;8.166;2023-03-16T14:46:24;15.80;47.20
14101;DHT22;7127;49.372;8.166;2023-03-16T14:48:59;15.80;47.00
14101;DHT22;7127;49.372;8.166;2023-03-16T14:51:28;15.80;46.70
14101;DHT22;7127;49.372;8.166;2023-03-16T14:53:56;15.80;46.70
14101;DHT22;7127;49.372;8.166;2023-03-16T14:56:23;15.90;46.70
14101;DHT22;7127;49.372;8.166;2023-03-16T14:58:56;15.90;46.50
14101;DHT22;7127;49.372;8.166;2023-03-16T15:01:23;15.90;46.40
14101;DHT22;7127;49.372;8.166;2023-03-16T15:03:51;15.90;46.30
14101;DHT22;7127;49.372;8.166;2023-03-16T15:06:18;15.90;46.40
14101;DHT22;7127;49.372;8.166;2023-03-16T15:08:47;15.90;46.30
14101;DHT22;7127;49.372;8.166;2023-03-16T15:11:15;15.90;46.30
14101;DHT22;7127;49.372;8.166;2023-03-16T15:13:46;15.90;46.20
14101;DHT22;7127;49.372;8.166;2023-03-16T15:16:28;15.80;46.20
14101;DHT22;7127;49.372;8.166;2023-03-16T15:18:55;15.90;46.20
14101;DHT22;7127;49.372;8.166;2023-03-16T15:21:26;15.90;46.20
14101;DHT22;7127;49.372;8.166;2023-03-16T15:23:56;15.90;46.10
14101;DHT22;7127;49.372;8.166;2023-03-16T15:26:25;16.00;46.20
14101;DHT22;7127;49.372;8.166;2023-03-16T15:28:53;16.00;46.10
14101;DHT22;7127;49.372;8.166;2023-03-16T15:31:20;15.90;45.50
14101;DHT22;7127;49.372;8.166;2023-03-16T15:33:47;15.90;45.50
14101;DHT22;7127;49.372;8.166;2023-03-16T15:36:16;15.90;45.60
14101;DHT22;7127;49.372;8.166;2023-03-16T15:38:45;15.90;45.40
14101;DHT22;7127;49.372;8.166;2023-03-16T15:41:14;15.90;45.30
14101;DHT22;7127;49.372;8.166;2023-03-16T15:43:40;15.90;45.10
14101;DHT22;7127;49.372;8.166;2023-03-16T15:46:09;15.90;45.20
14101;DHT22;7127;49.372;8.166;2023-03-16T15:48:37;15.90;45.30
14101;DHT22;7127;49.372;8.166;2023-03-16T15:51:07;15.90;45.30
14101;DHT22;7127;49.372;8.166;2023-03-16T15:53:36;15.80;45.10
14101;DHT22;7127;49.372;8.166;2023-03-16T15:56:06;15.80;45.20
14101;DHT22;7127;49.372;8.166;2023-03-16T15:58:37;15.80;45.10
14101;DHT22;7127;49.372;8.166;2023-03-16T16:01:06;15.80;45.10
14101;DHT22;7127;49.372;8.166;2023-03-16T16:03:34;15.80;45.10
14101;DHT22;7127;49.372;8.166;2023-03-16T16:06:01;15.70;44.90
14101;DHT22;7127;49.372;8.166;2023-03-16T16:08:28;15.70;44.90
14101;DHT22;7127;49.372;8.166;2023-03-16T16:10:56;15.70;45.00
14101;DHT22;7127;49.372;8.166;2023-03-16T16:13:25;15.70;45.00
14101;DHT22;7127;49.372;8.166;2023-03-16T16:15:55;15.60;44.80
14101;DHT22;7127;49.372;8.166;2023-03-16T16:18:25;15.60;44.90